Time;durP1;ratioP1;P1;durP2;ratioP2;P2;SDS_P1;SDS_P2;PMS_P1;PMS_P2;Temp;Humidity;BMP_temperature;BMP_pressure;BME280_temperature;BME280_humidity;BME280_pressure;Samples;Min_cycle;Max_cycle;Signal;HPM_P1;HPM_P2
2022/02/17 00:01:05;;;;;;;17.50;3.55;;;9.40;99.90;;;;;;4996760;28;20487;-88
2022/02/17 00:03:33;;;;;;;22.60;3.67;;;9.40;99.90;;;;;;4972873;28;20117;-87
2022/02/17 00:05:59;;;;;;;20.65;3.15;;;9.40;99.90;;;;;;4967837;28;20094;-88
2022/02/17 00:08:24;;;;;;;20.75;3.53;;;9.40;99.90;;;;;;4967485;28;20038;-88
2022/02/17 00:10:53;;;;;;;27.05;4.07;;;9.40;99.90;;;;;;4968384;28;20052;-90
2022/02/17 00:13:18;;;;;;;25.80;3.60;;;9.30;99.90;;;;;;4985027;28;20500;-87
2022/02/17 00:15:44;;;;;;;24.90;3.78;;;9.30;99.90;;;;;;4954685;28;20099;-86
2022/02/17 00:18:13;;;;;;;26.60;4.38;;;9.30;99.90;;;;;;4980966;28;20042;-91
2022/02/17 00:20:38;;;;;;;22.52;3.58;;;9.30;99.90;;;;;;4984861;28;20042;-87
2022/02/17 00:23:04;;;;;;;19.02;3.30;;;9.30;99.90;;;;;;4958004;28;20033;-87
2022/02/17 00:25:30;;;;;;;21.60;3.83;;;9.30;99.90;;;;;;4971845;28;20523;-89
2022/02/17 00:27:56;;;;;;;24.17;3.83;;;9.30;99.90;;;;;;4969166;28;20444;-86
2022/02/17 00:30:22;;;;;;;20.25;2.88;;;9.30;99.90;;;;;;4966714;28;20325;-88
2022/02/17 00:32:47;;;;;;;18.05;3.13;;;9.30;99.90;;;;;;4967898;28;20045;-89
2022/02/17 00:35:13;;;;;;;14.60;3.20;;;9.30;99.90;;;;;;5003764;28;20128;-89
2022/02/17 00:37:39;;;;;;;18.77;4.35;;;9.40;99.90;;;;;;4969417;28;20168;-89
2022/02/17 00:40:06;;;;;;;20.08;3.03;;;9.40;99.90;;;;;;4979392;28;20045;-87
2022/02/17 00:42:31;;;;;;;24.27;3.28;;;9.30;99.90;;;;;;5004249;28;20034;-87
2022/02/17 00:44:57;;;;;;;25.92;3.70;;;9.30;99.90;;;;;;4983611;28;20037;-88
2022/02/17 00:47:30;;;;;;;14.80;2.95;;;9.30;99.90;;;;;;4955634;28;20037;-90
2022/02/17 00:49:57;;;;;;;19.05;3.35;;;9.30;99.90;;;;;;5005513;28;20492;-89
2022/02/17 00:52:22;;;;;;;26.23;4.20;;;9.40;99.90;;;;;;4983786;28;20041;-90
2022/02/17 00:54:48;;;;;;;17.55;3.17;;;9.40;99.90;;;;;;4986711;28;20390;-89
2022/02/17 00:57:15;;;;;;;28.52;4.50;;;9.40;99.90;;;;;;4952454;28;20396;-90
2022/02/17 00:59:42;;;;;;;17.38;3.72;;;9.40;99.90;;;;;;4989686;28;20037;-89
2022/02/17 01:02:09;;;;;;;23.00;3.85;;;9.40;99.90;;;;;;4985515;28;20138;-88
2022/02/17 01:04:34;;;;;;;25.02;4.15;;;9.40;99.90;;;;;;4983295;28;20049;-89
2022/02/17 01:07:00;;;;;;;35.70;5.25;;;9.50;99.90;;;;;;4983398;28;20045;-88
2022/02/17 01:09:26;;;;;;;22.90;3.80;;;9.50;99.90;;;;;;4984268;28;20336;-86
2022/02/17 01:11:55;;;;;;;20.67;3.67;;;9.50;99.90;;;;;;4969664;28;20099;-87
2022/02/17 01:14:21;;;;;;;23.40;3.95;;;9.50;99.90;;;;;;4970258;28;20095;-87
2022/02/17 01:16:46;;;;;;;29.98;4.28;;;9.50;99.90;;;;;;4972334;28;20042;-90
2022/02/17 01:19:13;;;;;;;22.80;4.35;;;9.50;99.90;;;;;;4969394;28;20037;-85
2022/02/17 01:21:39;;;;;;;21.98;4.05;;;9.60;99.90;;;;;;4998993;28;20063;-86
2022/02/17 01:24:05;;;;;;;17.05;3.80;;;9.60;99.90;;;;;;4983988;28;20050;-88
2022/02/17 01:26:30;;;;;;;28.23;3.97;;;9.50;99.90;;;;;;4972523;28;20030;-86
2022/02/17 01:28:57;;;;;;;29.60;4.15;;;9.50;99.90;;;;;;4972822;28;20088;-89
2022/02/17 01:31:31;;;;;;;38.63;5.85;;;9.50;99.90;;;;;;4985226;28;20376;-86
2022/02/17 01:33:57;;;;;;;25.52;4.85;;;9.50;99.90;;;;;;4989510;28;20385;-86
2022/02/17 01:36:23;;;;;;;25.45;4.43;;;9.50;99.90;;;;;;4970272;28;20041;-86
2022/02/17 01:38:49;;;;;;;26.17;4.43;;;9.40;99.90;;;;;;4970200;28;20040;-87
2022/02/17 01:41:16;;;;;;;29.85;4.55;;;9.30;99.90;;;;;;4968265;28;20084;-87
2022/02/17 01:43:43;;;;;;;21.42;4.82;;;9.30;99.90;;;;;;4971515;28;20038;-91
2022/02/17 01:46:09;;;;;;;30.38;5.03;;;9.30;99.90;;;;;;4971687;28;20045;-88
2022/02/17 01:48:35;;;;;;;30.25;4.68;;;9.30;99.90;;;;;;4971106;28;20046;-87
2022/02/17 01:51:01;;;;;;;25.40;3.80;;;9.30;99.90;;;;;;4993179;28;20037;-87
2022/02/17 01:53:27;;;;;;;28.10;4.40;;;9.30;99.90;;;;;;4971411;28;20051;-90
2022/02/17 01:55:55;;;;;;;20.38;3.47;;;9.30;99.90;;;;;;4974470;28;20484;-90
2022/02/17 01:58:22;;;;;;;26.48;4.00;;;9.30;99.90;;;;;;4991386;28;20030;-88
2022/02/17 02:00:48;;;;;;;25.63;3.33;;;9.30;99.90;;;;;;4994340;28;20041;-89
2022/02/17 02:03:15;;;;;;;25.60;3.58;;;9.40;99.90;;;;;;4991335;28;20500;-88
2022/02/17 02:05:41;;;;;;;22.40;4.15;;;9.40;99.90;;;;;;4957113;28;20041;-87
2022/02/17 02:08:09;;;;;;;27.20;4.28;;;9.40;99.90;;;;;;4971781;28;20033;-89
2022/02/17 02:10:35;;;;;;;24.15;5.20;;;9.30;99.90;;;;;;5005686;28;20124;-90
2022/02/17 02:13:01;;;;;;;22.17;3.90;;;9.30;99.90;;;;;;4990398;28;20140;-87
2022/02/17 02:15:41;;;;;;;19.63;3.25;;;9.30;99.90;;;;;;4977181;28;20474;-86
2022/02/17 02:18:07;;;;;;;24.20;3.80;;;9.20;99.90;;;;;;4975102;28;20045;-88
2022/02/17 02:20:33;;;;;;;26.88;4.30;;;9.20;99.90;;;;;;4989459;28;20042;-88
2022/02/17 02:22:59;;;;;;;22.23;3.67;;;9.20;99.90;;;;;;5005268;28;20041;-88
2022/02/17 02:25:25;;;;;;;24.70;3.67;;;9.10;99.90;;;;;;4958375;28;20038;-89
2022/02/17 02:27:53;;;;;;;31.35;4.13;;;9.10;99.90;;;;;;4958836;28;20041;-89
2022/02/17 02:30:22;;;;;;;29.52;4.00;;;9.10;99.90;;;;;;4959329;28;20044;-91
2022/02/17 02:32:47;;;;;;;30.23;4.38;;;9.10;99.90;;;;;;4976881;28;20572;-88
2022/02/17 02:35:13;;;;;;;30.65;4.80;;;9.10;99.90;;;;;;4955855;28;20121;-89
2022/02/17 02:37:39;;;;;;;27.67;4.30;;;9.00;99.90;;;;;;4988326;28;20077;-89
2022/02/17 02:40:06;;;;;;;28.73;5.00;;;9.00;99.90;;;;;;4958677;28;20068;-88
2022/02/17 02:42:31;;;;;;;30.08;5.10;;;9.00;99.90;;;;;;4958676;28;20469;-87
2022/02/17 02:44:57;;;;;;;26.77;4.28;;;9.00;99.90;;;;;;4974897;28;20124;-91
2022/02/17 02:47:23;;;;;;;27.33;4.53;;;8.90;99.90;;;;;;4958002;28;20405;-88
2022/02/17 02:49:49;;;;;;;22.67;4.47;;;8.90;99.90;;;;;;4959568;28;20073;-86
2022/02/17 02:52:14;;;;;;;37.10;4.88;;;8.90;99.90;;;;;;4988016;28;20063;-87
2022/02/17 02:54:40;;;;;;;25.02;4.07;;;8.90;99.90;;;;;;4971297;28;20034;-88
2022/02/17 02:57:06;;;;;;;25.67;4.22;;;8.90;99.90;;;;;;4991522;28;20030;-88
2022/02/17 02:59:31;;;;;;;24.83;3.30;;;8.80;99.90;;;;;;4989668;28;20128;-89
2022/02/17 03:01:57;;;;;;;33.97;5.47;;;8.80;99.90;;;;;;4985425;28;20065;-90
2022/02/17 03:04:23;;;;;;;31.73;4.88;;;8.80;99.90;;;;;;4973897;28;20132;-85
2022/02/17 03:06:49;;;;;;;29.52;5.15;;;8.70;99.90;;;;;;4969411;28;20120;-89
2022/02/17 03:09:14;;;;;;;36.83;4.85;;;8.80;99.90;;;;;;4957314;28;20515;-88
2022/02/17 03:11:40;;;;;;;36.22;5.00;;;8.70;99.90;;;;;;4958336;28;20043;-89
2022/02/17 03:14:06;;;;;;;24.92;4.70;;;8.80;99.90;;;;;;4998318;28;20073;-87
2022/02/17 03:16:31;;;;;;;39.15;4.88;;;8.70;99.90;;;;;;4973889;28;20045;-88
2022/02/17 03:18:58;;;;;;;33.42;5.38;;;8.80;99.90;;;;;;4973180;28;20034;-88
2022/02/17 03:21:24;;;;;;;31.05;4.75;;;8.80;99.90;;;;;;4971752;28;20037;-90
2022/02/17 03:23:50;;;;;;;30.27;4.57;;;8.80;99.90;;;;;;4970845;28;20030;-89
2022/02/17 03:26:15;;;;;;;30.40;5.00;;;8.80;99.90;;;;;;4985850;28;20045;-88
2022/02/17 03:28:41;;;;;;;30.15;4.40;;;8.80;99.90;;;;;;4958312;28;20148;-89
2022/02/17 03:31:07;;;;;;;30.73;4.88;;;8.80;99.90;;;;;;4984849;28;20488;-87
2022/02/17 03:33:33;;;;;;;33.78;4.38;;;8.80;99.90;;;;;;4955394;28;20048;-84
2022/02/17 03:35:58;;;;;;;34.38;4.80;;;8.80;99.90;;;;;;4971938;28;20041;-87
2022/02/17 03:38:24;;;;;;;24.58;4.70;;;8.70;99.90;;;;;;4988208;28;20065;-88
2022/02/17 03:40:50;;;;;;;26.80;4.30;;;8.80;99.90;;;;;;4955450;28;20087;-88
2022/02/17 03:43:17;;;;;;;35.60;5.47;;;8.70;99.90;;;;;;4957859;28;20045;-89
2022/02/17 03:45:43;;;;;;;34.92;4.63;;;8.70;99.90;;;;;;4970533;28;20589;-90
2022/02/17 03:48:09;;;;;;;25.20;4.28;;;8.70;99.90;;;;;;4967494;28;20041;-89
2022/02/17 03:50:35;;;;;;;25.98;4.05;;;8.70;99.90;;;;;;4990337;28;20052;-87
2022/02/17 03:53:03;;;;;;;29.58;4.32;;;8.70;99.90;;;;;;4995262;28;20485;-89
2022/02/17 03:55:29;;;;;;;37.25;5.00;;;8.70;99.90;;;;;;4955954;28;20046;-89
2022/02/17 03:57:55;;;;;;;29.02;4.78;;;8.70;99.90;;;;;;4987576;28;20112;-86
2022/02/17 04:00:21;;;;;;;28.73;4.82;;;8.70;99.90;;;;;;4987854;28;20068;-88
2022/02/17 04:02:47;;;;;;;34.20;4.93;;;8.60;99.90;;;;;;4973775;28;20080;-89
2022/02/17 04:05:12;;;;;;;30.00;4.68;;;8.70;99.90;;;;;;4954930;28;20049;-88
2022/02/17 04:07:39;;;;;;;27.70;4.20;;;8.60;99.90;;;;;;4968095;28;20048;-88
2022/02/17 04:10:05;;;;;;;27.42;4.88;;;8.60;99.90;;;;;;4988322;28;20045;-88
2022/02/17 04:12:35;;;;;;;31.00;4.50;;;8.60;99.90;;;;;;4986684;28;20065;-90
2022/02/17 04:15:00;;;;;;;30.33;4.50;;;8.60;99.90;;;;;;4989563;28;20048;-89
2022/02/17 04:17:26;;;;;;;28.85;4.40;;;8.60;99.90;;;;;;4955343;28;20029;-88
2022/02/17 04:19:53;;;;;;;33.30;4.22;;;8.60;99.90;;;;;;4973251;28;20111;-88
2022/02/17 04:22:19;;;;;;;27.85;4.05;;;8.60;99.90;;;;;;4975776;28;20130;-87
2022/02/17 04:24:45;;;;;;;29.58;4.50;;;8.60;99.90;;;;;;4987177;28;20395;-87
2022/02/17 04:27:11;;;;;;;21.08;4.30;;;8.60;99.90;;;;;;4991285;28;20242;-89
2022/02/17 04:29:37;;;;;;;19.75;3.90;;;8.60;99.90;;;;;;4984334;28;20048;-87
2022/02/17 04:32:07;;;;;;;27.65;4.30;;;8.50;99.90;;;;;;4986000;28;20048;-88
2022/02/17 04:34:32;;;;;;;33.25;4.85;;;8.40;99.90;;;;;;4976240;28;20044;-88
2022/02/17 04:36:58;;;;;;;30.00;4.25;;;8.40;99.90;;;;;;4972151;28;20037;-87
2022/02/17 04:39:24;;;;;;;25.33;3.47;;;8.40;99.90;;;;;;4951281;28;20392;-87
2022/02/17 04:44:34;;;;;;;27.73;4.22;;;8.40;99.90;;;;;;4987509;28;20107;-88
2022/02/17 04:46:59;;;;;;;28.15;4.38;;;8.30;99.90;;;;;;4985084;28;20037;-89
2022/02/17 04:49:25;;;;;;;28.27;4.38;;;8.30;99.90;;;;;;4972916;28;20121;-89
2022/02/17 04:51:51;;;;;;;25.90;4.45;;;8.30;99.90;;;;;;4973371;28;20613;-88
2022/02/17 04:54:20;;;;;;;24.02;3.72;;;8.20;99.90;;;;;;4992453;28;20033;-89
2022/02/17 04:56:51;;;;;;;27.33;3.88;;;8.20;99.90;;;;;;5010005;28;20044;-87
2022/02/17 04:59:17;;;;;;;32.10;4.10;;;8.20;99.90;;;;;;5004462;28;20045;-87
2022/02/17 05:01:46;;;;;;;26.02;4.53;;;8.20;99.90;;;;;;4992812;28;20562;-87
2022/02/17 05:04:12;;;;;;;24.92;3.92;;;8.20;99.90;;;;;;4990979;28;20037;-89
2022/02/17 05:06:41;;;;;;;26.45;4.18;;;8.10;99.90;;;;;;4982154;28;20048;-87
2022/02/17 05:09:07;;;;;;;18.67;3.45;;;8.10;99.90;;;;;;4997908;28;20041;-90
2022/02/17 05:11:33;;;;;;;17.02;3.70;;;8.10;99.90;;;;;;4968477;28;20045;-87
2022/02/17 05:13:59;;;;;;;24.92;3.53;;;8.10;99.90;;;;;;4988947;28;20037;-91
2022/02/17 05:16:25;;;;;;;27.70;4.30;;;8.10;99.90;;;;;;4986344;28;20041;-89
2022/02/17 05:18:51;;;;;;;35.38;4.55;;;8.20;99.90;;;;;;4990220;28;20036;-89
2022/02/17 05:21:17;;;;;;;23.55;3.75;;;8.20;99.90;;;;;;4988281;28;20044;-89
2022/02/17 05:23:43;;;;;;;29.40;4.35;;;8.20;99.90;;;;;;4992845;28;20045;-90
2022/02/17 05:26:09;;;;;;;25.52;3.72;;;8.20;99.90;;;;;;4993166;28;20045;-90
2022/02/17 05:28:35;;;;;;;27.95;3.97;;;8.20;99.90;;;;;;4993612;28;20377;-86
2022/02/17 05:31:01;;;;;;;25.35;4.47;;;8.20;99.90;;;;;;4975094;28;20420;-89
2022/02/17 05:33:27;;;;;;;28.38;4.65;;;8.20;99.90;;;;;;4995020;28;20202;-89
2022/02/17 05:35:56;;;;;;;24.50;3.55;;;8.20;99.90;;;;;;4978444;28;20037;-90
2022/02/17 05:38:22;;;;;;;27.92;3.50;;;8.20;99.90;;;;;;4977155;28;20103;-87
2022/02/17 05:40:47;;;;;;;21.70;3.70;;;8.10;99.90;;;;;;4979197;28;20037;-88
2022/02/17 05:43:13;;;;;;;22.88;3.45;;;8.10;99.90;;;;;;4993627;28;20037;-88
2022/02/17 05:45:42;;;;;;;30.27;4.03;;;8.10;99.90;;;;;;4989896;28;20033;-89
2022/02/17 05:48:11;;;;;;;26.90;3.25;;;8.10;99.90;;;;;;4959020;28;20037;-89
2022/02/17 05:50:37;;;;;;;26.73;4.32;;;8.10;99.90;;;;;;4958865;28;20065;-88
2022/02/17 05:53:03;;;;;;;25.83;4.07;;;8.10;99.90;;;;;;4982006;28;20080;-87
2022/02/17 05:55:30;;;;;;;21.98;3.03;;;8.10;99.90;;;;;;5027258;28;20037;-89
2022/02/17 05:57:58;;;;;;;23.02;3.50;;;8.00;99.90;;;;;;4996084;28;20061;-87
2022/02/17 06:00:24;;;;;;;22.83;3.83;;;8.00;99.90;;;;;;4996502;28;20045;-89
2022/02/17 06:02:53;;;;;;;24.55;3.78;;;8.00;99.90;;;;;;4978379;28;20465;-90
2022/02/17 06:05:19;;;;;;;21.45;3.03;;;8.10;99.90;;;;;;4994185;28;20049;-88
2022/02/17 06:07:48;;;;;;;29.40;4.45;;;8.00;99.90;;;;;;4973448;28;20061;-86
2022/02/17 06:10:14;;;;;;;24.08;3.55;;;8.00;99.90;;;;;;4972620;28;20378;-87
2022/02/17 06:12:44;;;;;;;30.88;4.68;;;8.00;99.90;;;;;;4990336;28;20034;-88
2022/02/17 06:15:17;;;;;;;19.83;3.50;;;8.00;99.90;;;;;;4988836;28;20044;-87
2022/02/17 06:17:51;;;;;;;32.90;3.78;;;7.90;99.90;;;;;;5007091;28;20762;-88
2022/02/17 06:20:20;;;;;;;22.52;4.03;;;8.00;99.90;;;;;;4974011;28;20567;-90
2022/02/17 06:22:53;;;;;;;26.42;3.47;;;8.00;99.90;;;;;;4972342;28;20130;-90
2022/02/17 06:25:19;;;;;;;30.23;4.22;;;8.00;99.90;;;;;;4972715;28;20033;-88
2022/02/17 06:27:52;;;;;;;22.60;3.17;;;8.00;99.90;;;;;;4988163;28;20099;-90
2022/02/17 06:30:19;;;;;;;25.48;4.03;;;8.00;99.90;;;;;;4987430;28;20056;-87
2022/02/17 06:32:55;;;;;;;26.45;4.32;;;8.00;99.90;;;;;;5003999;28;20041;-89
2022/02/17 06:35:32;;;;;;;23.67;4.35;;;8.00;99.90;;;;;;4986930;28;20030;-87
2022/02/17 06:38:02;;;;;;;26.10;4.22;;;8.00;99.90;;;;;;5000457;28;20162;-88
2022/02/17 06:40:36;;;;;;;27.83;4.28;;;8.00;99.90;;;;;;5003112;28;20459;-88
2022/02/17 06:43:10;;;;;;;21.98;3.65;;;8.00;99.90;;;;;;4987944;28;20037;-90
2022/02/17 06:45:37;;;;;;;28.83;3.55;;;7.90;99.90;;;;;;5009532;28;20064;-90
2022/02/17 06:48:05;;;;;;;22.27;3.22;;;7.90;99.90;;;;;;4989083;28;20180;-88
2022/02/17 06:50:31;;;;;;;28.25;4.68;;;7.90;99.90;;;;;;4988734;28;20090;-89
2022/02/17 06:52:57;;;;;;;28.80;4.28;;;7.90;99.90;;;;;;4989656;28;20084;-89
2022/02/17 06:55:23;;;;;;;26.90;4.68;;;7.90;99.90;;;;;;4987854;28;20037;-89
2022/02/17 06:57:49;;;;;;;27.02;4.10;;;7.90;99.90;;;;;;4990808;28;20115;-89
2022/02/17 07:00:17;;;;;;;22.42;3.72;;;7.90;99.90;;;;;;4974670;28;20527;-89
2022/02/17 07:03:07;;;;;;;26.45;4.32;;;7.90;99.90;;;;;;4987923;28;20045;-88
2022/02/17 07:05:33;;;;;;;22.63;3.95;;;7.90;99.90;;;;;;4990598;28;21085;-87
2022/02/17 07:07:59;;;;;;;26.77;3.45;;;7.90;99.90;;;;;;4989634;28;20469;-90
2022/02/17 07:13:10;;;;;;;30.80;4.95;;;7.90;99.90;;;;;;4981402;28;20045;-89
2022/02/17 07:15:37;;;;;;;25.08;3.67;;;7.80;99.90;;;;;;4988178;28;20069;-89
2022/02/17 07:18:10;;;;;;;23.33;3.42;;;7.80;99.90;;;;;;4988482;28;20419;-88
2022/02/17 07:20:47;;;;;;;32.35;3.92;;;7.80;99.90;;;;;;4975129;28;20037;-88
2022/02/17 07:23:16;;;;;;;25.00;3.65;;;7.80;99.90;;;;;;4992557;28;20249;-88
2022/02/17 07:25:43;;;;;;;21.58;3.67;;;7.80;99.90;;;;;;4978556;28;20073;-87
2022/02/17 07:28:09;;;;;;;23.27;4.25;;;7.80;99.90;;;;;;5003448;28;20087;-91
2022/02/17 07:30:41;;;;;;;26.73;3.75;;;7.80;99.90;;;;;;4992895;28;20042;-88
2022/02/17 07:33:14;;;;;;;25.63;4.07;;;7.80;99.90;;;;;;4984112;28;20052;-89
2022/02/17 07:35:51;;;;;;;26.55;3.75;;;7.80;99.90;;;;;;4991658;28;20504;-89
2022/02/17 07:38:17;;;;;;;23.17;4.10;;;7.70;99.90;;;;;;4993127;28;20040;-89
2022/02/17 07:40:46;;;;;;;27.52;3.58;;;7.80;99.90;;;;;;4972020;28;20042;-89
2022/02/17 07:43:15;;;;;;;24.48;3.55;;;7.70;99.90;;;;;;4974874;28;20073;-87
2022/02/17 07:45:50;;;;;;;20.48;4.35;;;7.70;99.90;;;;;;4990144;28;20041;-89
2022/02/17 07:48:16;;;;;;;26.45;5.30;;;7.70;99.90;;;;;;4999930;28;20049;-89
2022/02/17 07:50:45;;;;;;;33.83;5.10;;;7.70;99.90;;;;;;4990922;28;20382;-90
2022/02/17 07:53:14;;;;;;;33.83;6.10;;;7.70;99.90;;;;;;4989455;28;20037;-88
2022/02/17 07:55:45;;;;;;;34.08;5.93;;;7.60;99.90;;;;;;4997343;28;20329;-90
2022/02/17 07:58:15;;;;;;;38.25;6.40;;;7.70;99.90;;;;;;4992251;28;20029;-89
2022/02/17 08:00:41;;;;;;;37.08;6.40;;;7.60;99.90;;;;;;4985324;28;20030;-90
2022/02/17 08:03:08;;;;;;;34.30;5.95;;;7.60;99.90;;;;;;4991246;28;20538;-90
2022/02/17 08:05:38;;;;;;;29.27;5.00;;;7.60;99.90;;;;;;4985556;28;20525;-89
2022/02/17 08:08:12;;;;;;;28.33;4.47;;;7.60;99.90;;;;;;4982359;28;20378;-89
2022/02/17 08:10:41;;;;;;;28.10;6.38;;;7.60;99.90;;;;;;4991680;28;20029;-89
2022/02/17 08:13:11;;;;;;;30.00;5.53;;;7.60;99.90;;;;;;4964535;28;20091;-90
2022/02/17 08:15:37;;;;;;;37.03;5.75;;;7.60;99.90;;;;;;4992151;28;20068;-89
2022/02/17 08:18:03;;;;;;;35.78;7.07;;;7.60;99.90;;;;;;4974575;28;20134;-89
2022/02/17 08:20:29;;;;;;;34.35;6.00;;;7.60;99.90;;;;;;4975557;28;20428;-90
2022/02/17 08:22:56;;;;;;;30.08;6.28;;;7.60;99.90;;;;;;4975457;28;20030;-88
2022/02/17 08:25:23;;;;;;;28.58;5.13;;;7.60;99.90;;;;;;4992818;28;20053;-88
2022/02/17 08:27:50;;;;;;;22.48;5.13;;;7.60;99.90;;;;;;4991833;28;20121;-90
2022/02/17 08:30:18;;;;;;;29.17;6.25;;;7.60;99.90;;;;;;4988239;28;20114;-88
2022/02/17 08:32:45;;;;;;;29.88;5.43;;;7.60;99.90;;;;;;4991079;28;20144;-88
2022/02/17 08:35:11;;;;;;;29.48;4.53;;;7.60;99.90;;;;;;4991544;28;20122;-88
2022/02/17 08:37:38;;;;;;;27.33;6.68;;;7.60;99.90;;;;;;5003592;28;20129;-88
2022/02/17 08:40:18;;;;;;;27.35;4.22;;;7.60;99.90;;;;;;4989754;28;20041;-90
2022/02/17 08:43:17;;;;;;;32.28;6.50;;;7.60;99.90;;;;;;5004370;28;20049;-88
2022/02/17 08:45:46;;;;;;;28.98;5.30;;;7.50;99.90;;;;;;4989515;28;20385;-88
2022/02/17 08:48:12;;;;;;;31.05;5.05;;;7.60;99.90;;;;;;4956448;28;20049;-87
2022/02/17 08:50:43;;;;;;;25.02;4.45;;;7.60;99.90;;;;;;4991894;28;20507;-87
2022/02/17 08:53:09;;;;;;;29.02;6.20;;;7.60;99.90;;;;;;5004387;28;20049;-87
2022/02/17 08:55:35;;;;;;;25.13;5.30;;;7.60;99.90;;;;;;4987452;28;20539;-89
2022/02/17 08:58:02;;;;;;;23.05;4.35;;;7.60;99.90;;;;;;4987607;28;20492;-86
2022/02/17 09:00:28;;;;;;;36.17;6.72;;;7.60;99.90;;;;;;4985306;28;20114;-87
2022/02/17 09:02:55;;;;;;;32.92;5.45;;;7.60;99.90;;;;;;4975062;28;20051;-86
2022/02/17 09:05:20;;;;;;;24.20;5.05;;;7.60;99.90;;;;;;4999436;28;20041;-86
2022/02/17 09:07:49;;;;;;;27.20;5.80;;;7.60;99.90;;;;;;5004904;28;20496;-88
2022/02/17 09:10:15;;;;;;;28.80;5.32;;;7.60;99.90;;;;;;4976456;28;20050;-85
2022/02/17 09:12:40;;;;;;;34.28;5.63;;;7.60;99.90;;;;;;4986358;28;20042;-88
2022/02/17 09:15:07;;;;;;;34.72;6.68;;;7.70;99.90;;;;;;4976026;28;20052;-87
2022/02/17 09:17:33;;;;;;;28.92;3.80;;;7.70;99.90;;;;;;4974986;28;20041;-89
2022/02/17 09:20:05;;;;;;;24.83;3.88;;;7.70;99.90;;;;;;4983720;28;20033;-89
2022/02/17 09:22:31;;;;;;;26.93;4.00;;;7.70;99.90;;;;;;5004546;28;20052;-88
2022/02/17 09:24:56;;;;;;;25.35;3.92;;;7.70;99.90;;;;;;4987688;28;20654;-89
2022/02/17 09:27:22;;;;;;;32.65;3.97;;;7.70;99.90;;;;;;4986755;28;20492;-89
2022/02/17 09:29:51;;;;;;;28.05;4.78;;;7.70;99.90;;;;;;4985042;28;20048;-87
2022/02/17 09:32:17;;;;;;;25.73;3.97;;;7.70;99.90;;;;;;4989482;28;20064;-88
2022/02/17 09:34:45;;;;;;;22.55;4.28;;;7.70;99.90;;;;;;4986797;28;20041;-89
2022/02/17 09:37:11;;;;;;;29.08;3.95;;;7.80;99.90;;;;;;4967972;23;20045;-90
2022/02/17 09:39:37;;;;;;;23.27;4.00;;;7.80;99.90;;;;;;4995662;28;20045;-89
2022/02/17 09:42:06;;;;;;;23.27;3.65;;;7.80;99.90;;;;;;4994488;28;20040;-89
2022/02/17 09:44:35;;;;;;;20.42;3.85;;;7.80;99.90;;;;;;4986484;28;20515;-90
2022/02/17 09:47:07;;;;;;;25.88;3.58;;;7.80;99.90;;;;;;4976470;28;20034;-89
2022/02/17 09:49:37;;;;;;;28.67;3.67;;;7.90;99.90;;;;;;4968129;28;20064;-90
2022/02/17 09:52:16;;;;;;;20.25;3.80;;;7.90;99.90;;;;;;4988941;28;20581;-87
2022/02/17 09:54:42;;;;;;;24.55;3.80;;;7.90;99.90;;;;;;4971091;28;20054;-91
2022/02/17 09:57:11;;;;;;;35.65;4.43;;;8.00;99.90;;;;;;4952204;28;20062;-90
2022/02/17 09:59:48;;;;;;;25.58;3.50;;;8.00;99.90;;;;;;4975738;28;20405;-90
2022/02/17 10:02:27;;;;;;;18.60;3.05;;;8.00;99.90;;;;;;4974120;28;20617;-90
2022/02/17 10:04:58;;;;;;;23.55;3.42;;;8.10;99.90;;;;;;4940869;28;20061;-89
2022/02/17 10:08:10;;;;;;;27.02;3.60;;;8.10;99.90;;;;;;4957962;28;20038;-89
2022/02/17 10:10:41;;;;;;;20.08;4.65;;;8.10;99.90;;;;;;4963502;28;20115;-89
2022/02/17 10:13:07;;;;;;;22.52;3.80;;;8.20;99.90;;;;;;4957920;28;20042;-89
2022/02/17 10:15:39;;;;;;;25.10;3.72;;;8.20;99.90;;;;;;4976699;28;20073;-87
2022/02/17 10:18:16;;;;;;;28.95;4.22;;;8.20;99.90;;;;;;4980798;28;20026;-90
2022/02/17 10:21:08;;;;;;;19.35;3.35;;;8.20;99.90;;;;;;4986287;28;20030;-86
2022/02/17 10:23:41;;;;;;;23.90;3.42;;;8.20;99.90;;;;;;4977971;28;20116;-88
2022/02/17 10:26:16;;;;;;;28.50;4.07;;;8.20;99.90;;;;;;4975517;28;20385;-88
2022/02/17 10:28:59;;;;;;;31.27;3.45;;;8.20;99.90;;;;;;5005598;28;20487;-88
2022/02/17 10:31:36;;;;;;;27.13;3.78;;;8.20;99.90;;;;;;4977180;28;20042;-90
2022/02/17 10:34:04;;;;;;;27.40;3.97;;;8.20;99.90;;;;;;4978343;28;20070;-92
2022/02/17 10:36:44;;;;;;;30.63;3.63;;;8.20;99.90;;;;;;4986179;28;20055;-90
2022/02/17 10:39:26;;;;;;;22.20;3.05;;;8.30;99.90;;;;;;4977869;28;20060;-91
2022/02/17 10:41:53;;;;;;;24.50;3.33;;;8.40;99.90;;;;;;4975135;28;20054;-88
2022/02/17 10:44:28;;;;;;;21.10;3.47;;;8.40;99.90;;;;;;5007240;28;20052;-89
2022/02/17 10:47:10;;;;;;;24.65;3.28;;;8.50;99.90;;;;;;4991691;28;20046;-91
2022/02/17 10:49:50;;;;;;;26.67;4.00;;;8.60;99.90;;;;;;4979655;28;20045;-87
2022/02/17 10:52:36;;;;;;;24.48;3.28;;;8.60;99.90;;;;;;4972768;28;20401;-90
2022/02/17 10:55:18;;;;;;;19.40;3.42;;;8.70;99.90;;;;;;4976676;28;20049;-89
2022/02/17 10:57:48;;;;;;;18.17;2.72;;;8.70;99.90;;;;;;4988027;28;20581;-89
2022/02/17 11:00:22;;;;;;;19.95;3.42;;;8.80;99.90;;;;;;4973258;28;20034;-92
2022/02/17 11:02:51;;;;;;;22.92;3.58;;;8.80;99.90;;;;;;4992101;28;20061;-90
2022/02/17 11:05:18;;;;;;;19.65;3.42;;;8.90;99.90;;;;;;4983289;28;20066;-89
2022/02/17 11:07:46;;;;;;;22.10;3.17;;;8.90;99.90;;;;;;4993983;28;20064;-86
2022/02/17 11:10:13;;;;;;;20.27;2.90;;;8.90;99.90;;;;;;4962131;28;20034;-91
2022/02/17 11:12:41;;;;;;;27.73;4.07;;;9.00;99.90;;;;;;4951977;28;20037;-89
2022/02/17 11:15:08;;;;;;;21.00;3.22;;;9.10;99.90;;;;;;4973162;28;20037;-89
2022/02/17 11:17:39;;;;;;;20.15;3.15;;;9.20;99.90;;;;;;4977634;28;20102;-91
2022/02/17 11:20:17;;;;;;;25.20;3.92;;;9.40;99.90;;;;;;4972161;28;20405;-88
2022/02/17 11:22:47;;;;;;;20.77;3.03;;;9.40;99.90;;;;;;4976600;28;20092;-89
2022/02/17 11:25:17;;;;;;;27.25;3.60;;;9.30;99.90;;;;;;4971752;28;20052;-90
2022/02/17 11:28:32;;;;;;;20.40;2.95;;;9.30;99.90;;;;;;4974771;28;20041;-88
2022/02/17 11:31:10;;;;;;;15.80;2.45;;;9.30;99.90;;;;;;4931431;29;20043;-89
2022/02/17 11:33:39;;;;;;;21.60;3.13;;;9.40;99.90;;;;;;4918104;29;20164;-85
2022/02/17 11:36:10;;;;;;;16.58;2.60;;;9.40;99.90;;;;;;4901026;29;20059;-88
2022/02/17 11:38:40;;;;;;;25.50;3.75;;;9.50;99.90;;;;;;4906668;29;20039;-84
2022/02/17 11:41:18;;;;;;;17.75;3.08;;;9.50;99.90;;;;;;4898043;28;20083;-87
2022/02/17 11:43:45;;;;;;;15.07;2.55;;;9.50;99.90;;;;;;4978377;28;20358;-87
2022/02/17 11:46:14;;;;;;;21.27;3.42;;;9.50;99.90;;;;;;4976184;28;20037;-88
2022/02/17 11:48:39;;;;;;;18.58;3.10;;;9.50;98.60;;;;;;4974843;28;20042;-89
2022/02/17 11:51:17;;;;;;;19.27;2.88;;;9.50;99.90;;;;;;4972858;28;20045;-89
2022/02/17 11:53:45;;;;;;;14.43;2.45;;;9.40;96.70;;;;;;4972612;28;20041;-91
2022/02/17 11:58:44;;;;;;;16.55;3.42;;;9.40;97.40;;;;;;5006464;28;20159;-90
2022/02/17 12:01:34;;;;;;;20.08;3.47;;;9.40;97.90;;;;;;4987086;28;20033;-90
2022/02/17 12:04:06;;;;;;;17.58;2.58;;;9.40;96.00;;;;;;4990699;28;20041;-88
2022/02/17 12:06:45;;;;;;;23.63;2.70;;;9.40;95.40;;;;;;4982407;28;20065;-87
2022/02/17 12:09:29;;;;;;;24.63;3.20;;;9.40;94.60;;;;;;4966377;28;20037;-90
2022/02/17 12:12:27;;;;;;;19.48;2.50;;;9.50;94.10;;;;;;4979056;28;20072;-87
2022/02/17 12:14:58;;;;;;;24.95;2.83;;;9.50;94.60;;;;;;4986666;28;20358;-87
2022/02/17 12:17:31;;;;;;;13.35;2.33;;;9.60;92.40;;;;;;5001289;28;20041;-88
2022/02/17 12:20:04;;;;;;;17.05;2.65;;;9.60;88.60;;;;;;5001732;28;20164;-87
2022/02/17 12:22:31;;;;;;;19.67;3.17;;;9.70;88.70;;;;;;4998692;28;20050;-87
2022/02/17 12:25:14;;;;;;;18.70;3.83;;;9.70;92.10;;;;;;4975974;28;20042;-88
2022/02/17 12:27:43;;;;;;;13.02;3.13;;;9.80;90.90;;;;;;4981029;28;20045;-88
2022/02/17 12:30:10;;;;;;;23.42;3.35;;;10.00;94.40;;;;;;4971920;28;20056;-91
2022/02/17 12:32:36;;;;;;;20.73;3.10;;;10.10;94.10;;;;;;4977200;28;20096;-89
2022/02/17 12:35:05;;;;;;;18.55;4.63;;;10.20;91.30;;;;;;4956491;28;20069;-91
2022/02/17 12:37:31;;;;;;;26.90;4.97;;;10.20;92.60;;;;;;4960850;28;20041;-90
2022/02/17 12:40:00;;;;;;;23.67;4.20;;;10.10;91.20;;;;;;4945048;28;20067;-88
2022/02/17 12:42:42;;;;;;;14.18;2.28;;;10.00;90.90;;;;;;4960937;28;20041;-88
2022/02/17 12:45:11;;;;;;;;;;;9.90;90.70;;;;;;4970871;28;20612;-89
2022/02/17 12:47:43;;;;;;;19.40;2.90;;;10.00;91.60;;;;;;4985595;28;20596;-90
2022/02/17 12:50:10;;;;;;;17.13;2.63;;;10.10;90.80;;;;;;4983444;28;20042;-89
2022/02/17 12:52:36;;;;;;;17.88;2.75;;;10.20;92.20;;;;;;4978893;28;20056;-87
2022/02/17 12:55:07;;;;;;;20.13;3.30;;;10.30;90.30;;;;;;4945385;28;20038;-89
2022/02/17 12:57:51;;;;;;;14.57;2.37;;;10.30;91.10;;;;;;4971483;28;20397;-88
2022/02/17 13:00:17;;;;;;;16.02;2.70;;;10.20;88.00;;;;;;4973456;28;20454;-89
2022/02/17 13:02:46;;;;;;;18.60;2.92;;;10.20;88.60;;;;;;4967489;28;20073;-87